Time;durP1;ratioP1;P1;durP2;ratioP2;P2;SDS_P1;SDS_P2;PMS_P1;PMS_P2;Temp;Humidity;BMP_temperature;BMP_pressure;BME280_temperature;BME280_humidity;BME280_pressure;Samples;Min_cycle;Max_cycle;Signal;HPM_P1;HPM_P2
2023/06/13 00:00:10;;;;;;;;;;;23.20;31.20;;;;;;5003935;28;20396;-59
2023/06/13 00:02:37;;;;;;;;;;;23.20;31.10;;;;;;5004984;28;19921;-61
2023/06/13 00:05:04;;;;;;;;;;;23.20;31.10;;;;;;5004344;28;19968;-61
2023/06/13 00:07:32;;;;;;;;;;;23.20;31.10;;;;;;5018488;28;19925;-60
2023/06/13 00:10:00;;;;;;;;;;;23.20;31.10;;;;;;5006713;28;19928;-61
2023/06/13 00:12:27;;;;;;;;;;;23.20;31.10;;;;;;5007886;28;19934;-63
2023/06/13 00:14:54;;;;;;;;;;;23.20;31.10;;;;;;5001598;28;19925;-58
2023/06/13 00:17:25;;;;;;;;;;;23.20;31.10;;;;;;5004825;28;19921;-62
2023/06/13 00:19:54;;;;;;;;;;;23.20;31.10;;;;;;5000883;28;19922;-62
2023/06/13 00:22:21;;;;;;;;;;;23.20;31.10;;;;;;5001140;28;19932;-61
2023/06/13 00:24:47;;;;;;;;;;;23.20;31.10;;;;;;5002570;28;19933;-62
2023/06/13 00:27:16;;;;;;;;;;;23.20;31.10;;;;;;5027429;28;19983;-62
2023/06/13 00:29:43;;;;;;;;;;;23.20;31.10;;;;;;5011176;28;19925;-62
2023/06/13 00:32:10;;;;;;;;;;;23.10;31.10;;;;;;5012193;28;19925;-61
2023/06/13 00:34:39;;;;;;;;;;;23.10;31.10;;;;;;5009524;28;20162;-62
2023/06/13 00:37:09;;;;;;;;;;;23.10;31.10;;;;;;5012150;28;19921;-60
2023/06/13 00:39:36;;;;;;;;;;;23.10;31.10;;;;;;5011986;28;19921;-61
2023/06/13 00:42:02;;;;;;;;;;;23.10;31.10;;;;;;5013179;28;19922;-62
2023/06/13 00:44:31;;;;;;;;;;;23.10;31.10;;;;;;5005996;28;19975;-62
2023/06/13 00:46:58;;;;;;;;;;;23.10;31.10;;;;;;5026992;28;19925;-61
2023/06/13 00:49:25;;;;;;;;;;;23.10;31.20;;;;;;5011102;28;19933;-61
2023/06/13 00:51:51;;;;;;;;;;;23.10;31.20;;;;;;5010691;28;19929;-62
2023/06/13 00:54:18;;;;;;;;;;;23.10;31.20;;;;;;5013002;28;19968;-62
2023/06/13 00:56:45;;;;;;;;;;;23.10;31.20;;;;;;5010052;28;19952;-61
2023/06/13 00:59:13;;;;;;;;;;;23.10;31.20;;;;;;5008672;28;19921;-61
2023/06/13 01:01:42;;;;;;;;;;;23.10;31.30;;;;;;5011342;28;19926;-62
2023/06/13 01:04:09;;;;;;;;;;;23.10;31.30;;;;;;5009887;28;20264;-60
2023/06/13 01:06:40;;;;;;;;;;;23.10;31.40;;;;;;5028502;28;19929;-61
2023/06/13 01:09:08;;;;;;;;;;;23.10;31.40;;;;;;5012288;28;19922;-62
2023/06/13 01:11:38;;;;;;;;;;;23.10;31.50;;;;;;5007332;28;19976;-63
2023/06/13 01:14:06;;;;;;;;;;;23.10;31.50;;;;;;5020887;28;19922;-62
2023/06/13 01:16:35;;;;;;;;;;;23.10;31.50;;;;;;5035760;28;19983;-62
2023/06/13 01:19:08;;;;;;;;;;;23.10;31.60;;;;;;5031337;28;19922;-59
2023/06/13 01:21:35;;;;;;;;;;;23.10;31.50;;;;;;5008573;28;20383;-62
2023/06/13 01:24:04;;;;;;;;;;;23.10;31.50;;;;;;5011557;28;19922;-60
2023/06/13 01:26:43;;;;;;;;;;;23.10;31.50;;;;;;5009958;28;19929;-61
2023/06/13 01:29:10;;;;;;;;;;;23.10;31.50;;;;;;5011655;28;19945;-62
2023/06/13 01:31:37;;;;;;;;;;;23.10;31.50;;;;;;5012243;28;19953;-62
2023/06/13 01:34:04;;;;;;;;;;;23.10;31.60;;;;;;5012731;28;19928;-61
2023/06/13 01:36:30;;;;;;;;;;;23.10;31.60;;;;;;5012494;28;19979;-61
2023/06/13 01:38:57;;;;;;;;;;;23.10;31.50;;;;;;5010437;28;19921;-61
2023/06/13 01:41:24;;;;;;;;;;;23.10;31.60;;;;;;5008278;28;19921;-62
2023/06/13 01:43:52;;;;;;;;;;;23.10;31.60;;;;;;5008388;28;19979;-62
2023/06/13 01:46:23;;;;;;;;;;;23.10;31.60;;;;;;5008380;28;20324;-60
2023/06/13 01:48:52;;;;;;;;;;;23.10;31.60;;;;;;5009538;28;19972;-59
2023/06/13 01:51:20;;;;;;;;;;;23.10;31.50;;;;;;5007451;28;19928;-61
2023/06/13 01:53:49;;;;;;;;;;;23.10;31.50;;;;;;5021554;28;19921;-61
2023/06/13 01:56:19;;;;;;;;;;;23.10;31.50;;;;;;5026295;28;19936;-61
2023/06/13 01:58:48;;;;;;;;;;;23.10;31.50;;;;;;5008974;28;20346;-62
2023/06/13 02:01:16;;;;;;;;;;;23.10;31.50;;;;;;5009510;28;20003;-62
2023/06/13 02:03:43;;;;;;;;;;;23.10;31.50;;;;;;5005839;28;19964;-60
2023/06/13 02:06:09;;;;;;;;;;;23.10;31.50;;;;;;5002801;28;19972;-60
2023/06/13 02:08:36;;;;;;;;;;;23.10;31.40;;;;;;5010028;28;19929;-61
2023/06/13 02:11:03;;;;;;;;;;;23.10;31.40;;;;;;5006050;28;19930;-59
2023/06/13 02:13:29;;;;;;;;;;;23.10;31.40;;;;;;5009383;28;20000;-61
2023/06/13 02:15:56;;;;;;;;;;;23.10;31.40;;;;;;5006357;28;19921;-61
2023/06/13 02:18:25;;;;;;;;;;;23.00;31.30;;;;;;5008511;28;19968;-61
2023/06/13 02:20:51;;;;;;;;;;;23.00;31.40;;;;;;5008016;28;19972;-62
2023/06/13 02:23:18;;;;;;;;;;;23.00;31.40;;;;;;5006901;28;19925;-60
2023/06/13 02:25:45;;;;;;;;;;;23.00;31.40;;;;;;5004415;28;19992;-60
2023/06/13 02:28:12;;;;;;;;;;;23.00;31.40;;;;;;5006194;28;19963;-62
2023/06/13 02:30:39;;;;;;;;;;;23.00;31.50;;;;;;5007279;28;19921;-61
2023/06/13 02:33:08;;;;;;;;;;;23.00;31.50;;;;;;5003032;28;19929;-61
2023/06/13 02:35:36;;;;;;;;;;;23.00;31.50;;;;;;5006317;28;19926;-61
2023/06/13 02:38:06;;;;;;;;;;;23.10;31.60;;;;;;5010061;28;19929;-61
2023/06/13 02:40:33;;;;;;;;;;;23.00;31.60;;;;;;5006309;28;19921;-61
2023/06/13 02:43:01;;;;;;;;;;;23.00;31.60;;;;;;5002340;28;19922;-60
2023/06/13 02:45:28;;;;;;;;;;;23.00;31.60;;;;;;5009273;28;19993;-60
2023/06/13 02:47:55;;;;;;;;;;;23.00;31.60;;;;;;5006715;28;20117;-60
2023/06/13 02:50:21;;;;;;;;;;;23.00;31.60;;;;;;5008224;28;20008;-63
2023/06/13 02:52:50;;;;;;;;;;;23.00;31.70;;;;;;5006091;28;19972;-61
2023/06/13 02:55:17;;;;;;;;;;;23.00;31.70;;;;;;5003990;28;19938;-62
2023/06/13 02:57:45;;;;;;;;;;;23.00;31.70;;;;;;4999940;28;19928;-62
2023/06/13 03:00:12;;;;;;;;;;;23.00;31.70;;;;;;5025099;28;19945;-61
2023/06/13 03:02:39;;;;;;;;;;;23.00;31.70;;;;;;5002875;28;19968;-61
2023/06/13 03:05:07;;;;;;;;;;;23.00;31.80;;;;;;5006773;28;20343;-62
2023/06/13 03:07:34;;;;;;;;;;;23.00;31.80;;;;;;5005291;28;19921;-62
2023/06/13 03:10:04;;;;;;;;;;;23.00;31.90;;;;;;5005980;28;19928;-59
2023/06/13 03:12:31;;;;;;;;;;;23.00;31.90;;;;;;5004541;28;19957;-59
2023/06/13 03:14:58;;;;;;;;;;;22.90;31.90;;;;;;5003822;28;20319;-61
2023/06/13 03:17:25;;;;;;;;;;;23.00;31.90;;;;;;5005799;28;19933;-62
2023/06/13 03:19:52;;;;;;;;;;;23.00;31.90;;;;;;5002531;28;19929;-62
2023/06/13 03:22:19;;;;;;;;;;;23.00;32.10;;;;;;5005634;28;19937;-60
2023/06/13 03:24:46;;;;;;;;;;;23.00;32.10;;;;;;5006717;28;20376;-61
2023/06/13 03:27:14;;;;;;;;;;;23.00;32.10;;;;;;5006936;28;19940;-61
2023/06/13 03:29:41;;;;;;;;;;;23.00;32.20;;;;;;5001556;28;19921;-61
2023/06/13 03:32:08;;;;;;;;;;;23.00;32.20;;;;;;5005952;28;19925;-60
2023/06/13 03:34:37;;;;;;;;;;;23.00;32.30;;;;;;5004813;28;19952;-61
2023/06/13 03:37:05;;;;;;;;;;;23.00;32.40;;;;;;5005601;28;19921;-59
2023/06/13 03:39:31;;;;;;;;;;;23.00;32.40;;;;;;5004709;28;19921;-61
2023/06/13 03:41:58;;;;;;;;;;;23.00;32.50;;;;;;5003008;28;19953;-60
2023/06/13 03:44:26;;;;;;;;;;;23.00;32.50;;;;;;5006130;28;19925;-60
2023/06/13 03:46:53;;;;;;;;;;;23.00;32.50;;;;;;5009113;28;19934;-62
2023/06/13 03:49:20;;;;;;;;;;;22.90;32.50;;;;;;5002235;28;19979;-61
2023/06/13 03:51:47;;;;;;;;;;;22.90;32.60;;;;;;5017133;28;19929;-61
2023/06/13 03:54:13;;;;;;;;;;;22.90;32.70;;;;;;5004301;28;19941;-61
2023/06/13 03:56:40;;;;;;;;;;;22.90;32.80;;;;;;5001780;28;19922;-62
2023/06/13 03:59:07;;;;;;;;;;;22.90;32.80;;;;;;5012841;28;19983;-59
2023/06/13 04:01:35;;;;;;;;;;;22.90;32.90;;;;;;5001344;28;19975;-61
2023/06/13 04:04:02;;;;;;;;;;;22.90;32.90;;;;;;5004529;28;20249;-62
2023/06/13 04:06:29;;;;;;;;;;;22.90;33.00;;;;;;5002357;28;19921;-61
2023/06/13 04:08:57;;;;;;;;;;;22.90;33.00;;;;;;5010806;28;19930;-61
2023/06/13 04:11:24;;;;;;;;;;;22.90;33.10;;;;;;5005328;28;19927;-60
2023/06/13 04:13:51;;;;;;;;;;;22.90;33.20;;;;;;5023370;28;19930;-61
2023/06/13 04:16:17;;;;;;;;;;;22.90;33.30;;;;;;5003703;28;19984;-61
2023/06/13 04:18:45;;;;;;;;;;;22.90;33.40;;;;;;5002117;28;19976;-61
2023/06/13 04:21:12;;;;;;;;;;;22.90;33.40;;;;;;5004539;28;19941;-62
2023/06/13 04:23:39;;;;;;;;;;;22.90;33.50;;;;;;5003463;28;19921;-62
2023/06/13 04:26:07;;;;;;;;;;;22.90;33.50;;;;;;5002477;28;19932;-61
2023/06/13 04:28:35;;;;;;;;;;;22.90;33.60;;;;;;5002080;28;19933;-62
2023/06/13 04:31:03;;;;;;;;;;;22.90;33.60;;;;;;5008580;28;20399;-62
2023/06/13 04:33:29;;;;;;;;;;;22.90;33.70;;;;;;5006501;28;19921;-61
2023/06/13 04:36:03;;;;;;;;;;;22.90;33.80;;;;;;5005009;28;19934;-58
2023/06/13 04:38:30;;;;;;;;;;;22.90;33.80;;;;;;5003336;28;19921;-61
2023/06/13 04:40:58;;;;;;;;;;;22.90;33.90;;;;;;5003631;28;19929;-61
2023/06/13 04:43:24;;;;;;;;;;;22.90;34.00;;;;;;5003458;28;19941;-60
2023/06/13 04:45:51;;;;;;;;;;;22.90;34.00;;;;;;5002629;28;20176;-61
2023/06/13 04:48:18;;;;;;;;;;;22.90;34.10;;;;;;5004282;28;19928;-61
2023/06/13 04:50:46;;;;;;;;;;;22.90;34.10;;;;;;5000319;28;19964;-62
2023/06/13 04:53:15;;;;;;;;;;;22.90;34.20;;;;;;5002257;28;20012;-59
2023/06/13 04:55:43;;;;;;;;;;;22.90;34.20;;;;;;5003925;28;19922;-61
2023/06/13 04:58:09;;;;;;;;;;;22.90;34.30;;;;;;5003285;28;19925;-64
2023/06/13 05:00:36;;;;;;;;;;;22.90;34.40;;;;;;5003563;28;19977;-63
2023/06/13 05:03:06;;;;;;;;;;;22.90;34.40;;;;;;5002134;28;19936;-60
2023/06/13 05:05:33;;;;;;;;;;;22.90;34.50;;;;;;5004799;28;20425;-60
2023/06/13 05:08:00;;;;;;;;;;;22.90;34.60;;;;;;5000957;28;19928;-61
2023/06/13 05:10:29;;;;;;;;;;;22.90;34.70;;;;;;5005406;28;19979;-62
2023/06/13 05:12:56;;;;;;;;;;;22.90;34.70;;;;;;5005982;28;19932;-63
2023/06/13 05:15:23;;;;;;;;;;;22.90;34.80;;;;;;5005509;28;19925;-61
2023/06/13 05:17:52;;;;;;;;;;;22.90;34.80;;;;;;5002496;28;19921;-61
2023/06/13 05:20:22;;;;;;;;;;;23.00;34.90;;;;;;5007053;28;19971;-62
2023/06/13 05:22:49;;;;;;;;;;;22.90;34.90;;;;;;5003236;28;20364;-63
2023/06/13 05:25:17;;;;;;;;;;;22.90;35.00;;;;;;5024562;28;19921;-62
2023/06/13 05:27:45;;;;;;;;;;;22.90;35.10;;;;;;5006594;28;20641;-61
2023/06/13 05:30:12;;;;;;;;;;;22.90;35.10;;;;;;5006372;28;19922;-61
2023/06/13 05:32:39;;;;;;;;;;;22.90;35.10;;;;;;5010059;28;19929;-62
2023/06/13 05:35:08;;;;;;;;;;;22.90;35.20;;;;;;5004750;28;20028;-60
2023/06/13 05:37:37;;;;;;;;;;;22.90;35.20;;;;;;5009027;28;19921;-62
2023/06/13 05:40:05;;;;;;;;;;;22.90;35.40;;;;;;5006876;28;19992;-61
2023/06/13 05:42:32;;;;;;;;;;;22.90;35.40;;;;;;5007440;28;19940;-60
2023/06/13 05:45:00;;;;;;;;;;;22.90;35.50;;;;;;5025572;28;19991;-61
2023/06/13 05:47:27;;;;;;;;;;;22.90;36.10;;;;;;5012370;28;19921;-61
2023/06/13 05:49:53;;;;;;;;;;;22.90;35.60;;;;;;5013524;28;19921;-61
2023/06/13 05:52:20;;;;;;;;;;;22.90;35.60;;;;;;5023210;28;19921;-63
2023/06/13 05:54:49;;;;;;;;;;;22.90;35.70;;;;;;5024763;28;19928;-62
2023/06/13 05:57:16;;;;;;;;;;;22.90;35.70;;;;;;5013517;28;19921;-59
2023/06/13 05:59:42;;;;;;;;;;;22.90;35.80;;;;;;5004299;28;20012;-60
2023/06/13 06:02:11;;;;;;;;;;;22.90;35.90;;;;;;5005632;28;20272;-60
2023/06/13 06:04:38;;;;;;;;;;;22.90;35.90;;;;;;5025328;28;19921;-60
2023/06/13 06:07:05;;;;;;;;;;;22.90;36.00;;;;;;5008838;28;19987;-59
2023/06/13 06:09:32;;;;;;;;;;;22.90;36.00;;;;;;5010249;28;19976;-58
2023/06/13 06:11:58;;;;;;;;;;;22.90;36.10;;;;;;5011403;28;19998;-60
2023/06/13 06:14:25;;;;;;;;;;;22.90;36.20;;;;;;5007781;28;19921;-61
2023/06/13 06:16:52;;;;;;;;;;;22.90;36.10;;;;;;5009525;28;19926;-62
2023/06/13 06:19:20;;;;;;;;;;;22.90;36.20;;;;;;5014704;28;20024;-61
2023/06/13 06:21:47;;;;;;;;;;;22.90;36.20;;;;;;5021454;28;19921;-62
2023/06/13 06:24:14;;;;;;;;;;;22.90;36.30;;;;;;5009096;28;19928;-60
2023/06/13 06:26:40;;;;;;;;;;;22.90;36.30;;;;;;5004666;28;19968;-59
2023/06/13 06:29:07;;;;;;;;;;;23.00;36.40;;;;;;5007192;28;19944;-60
2023/06/13 06:31:34;;;;;;;;;;;22.90;36.40;;;;;;5008854;28;19921;-61
2023/06/13 06:34:01;;;;;;;;;;;23.00;36.50;;;;;;5008060;28;19921;-61
2023/06/13 06:36:29;;;;;;;;;;;23.00;36.50;;;;;;5010965;28;20279;-59
2023/06/13 06:38:56;;;;;;;;;;;23.00;36.60;;;;;;5023739;28;19928;-62
2023/06/13 06:41:23;;;;;;;;;;;23.00;36.60;;;;;;5004193;28;19945;-59
2023/06/13 06:43:50;;;;;;;;;;;23.00;36.50;;;;;;5007444;28;19929;-62
2023/06/13 06:46:16;;;;;;;;;;;23.00;36.60;;;;;;5008172;28;19921;-61
2023/06/13 06:48:43;;;;;;;;;;;23.00;36.60;;;;;;5022816;28;20028;-61
2023/06/13 06:51:10;;;;;;;;;;;23.00;36.60;;;;;;5009367;28;19926;-62
2023/06/13 06:53:39;;;;;;;;;;;23.00;36.90;;;;;;5008584;28;19922;-61
2023/06/13 06:56:06;;;;;;;;;;;23.00;37.00;;;;;;5008480;28;19945;-60
2023/06/13 06:58:32;;;;;;;;;;;23.00;37.40;;;;;;5010406;28;20007;-61
2023/06/13 07:01:00;;;;;;;;;;;23.00;37.00;;;;;;5004209;28;19926;-61
2023/06/13 07:03:26;;;;;;;;;;;23.00;36.90;;;;;;5008433;28;19922;-62
2023/06/13 07:05:53;;;;;;;;;;;23.00;36.90;;;;;;5008986;28;19925;-61
2023/06/13 07:08:20;;;;;;;;;;;23.10;37.00;;;;;;5005869;28;19979;-60
2023/06/13 07:10:49;;;;;;;;;;;23.10;37.00;;;;;;5008843;28;19922;-62
2023/06/13 07:13:16;;;;;;;;;;;23.10;36.90;;;;;;5009436;28;19921;-60
2023/06/13 07:15:42;;;;;;;;;;;23.10;37.00;;;;;;5011500;28;19972;-60
2023/06/13 07:18:09;;;;;;;;;;;23.10;36.90;;;;;;5021571;28;19934;-61
2023/06/13 07:20:36;;;;;;;;;;;23.10;37.00;;;;;;5012104;28;20019;-63
2023/06/13 07:23:03;;;;;;;;;;;23.10;36.90;;;;;;5010986;28;20368;-64
2023/06/13 07:25:30;;;;;;;;;;;23.10;36.90;;;;;;5011846;28;19925;-61
2023/06/13 07:27:58;;;;;;;;;;;23.10;36.90;;;;;;5006256;28;19969;-59
2023/06/13 07:30:25;;;;;;;;;;;23.10;36.90;;;;;;5004514;28;19937;-60
2023/06/13 07:32:52;;;;;;;;;;;23.10;36.80;;;;;;5012879;28;19957;-61
2023/06/13 07:35:23;;;;;;;;;;;23.10;36.80;;;;;;5007931;28;19921;-60
2023/06/13 07:37:50;;;;;;;;;;;23.10;36.70;;;;;;5010640;28;19933;-61
2023/06/13 07:40:17;;;;;;;;;;;23.10;36.70;;;;;;5006096;28;19925;-60
2023/06/13 07:42:44;;;;;;;;;;;23.10;36.60;;;;;;5006915;28;19921;-63
2023/06/13 07:45:14;;;;;;;;;;;23.10;36.60;;;;;;5009727;28;19929;-61
2023/06/13 07:47:42;;;;;;;;;;;23.10;36.60;;;;;;5014407;28;19972;-60
2023/06/13 07:50:08;;;;;;;;;;;23.10;36.50;;;;;;4995891;28;19960;-59
2023/06/13 07:52:35;;;;;;;;;;;23.20;36.60;;;;;;5028526;28;20407;-63
2023/06/13 07:55:03;;;;;;;;;;;23.20;36.60;;;;;;5031636;28;19932;-60
2023/06/13 07:57:29;;;;;;;;;;;23.20;36.40;;;;;;5012277;28;19921;-62
2023/06/13 07:59:56;;;;;;;;;;;23.20;37.00;;;;;;5012399;28;19971;-60
2023/06/13 08:02:26;;;;;;;;;;;23.20;36.30;;;;;;5011865;28;19932;-61
2023/06/13 08:04:53;;;;;;;;;;;23.20;36.20;;;;;;5010278;28;19925;-62
2023/06/13 08:07:19;;;;;;;;;;;23.20;36.20;;;;;;5014050;28;19921;-63
2023/06/13 08:09:46;;;;;;;;;;;23.10;36.10;;;;;;5011743;28;19921;-61
2023/06/13 08:12:14;;;;;;;;;;;23.20;36.20;;;;;;5002727;28;19929;-62
2023/06/13 08:14:41;;;;;;;;;;;23.20;36.20;;;;;;5006613;28;19925;-59
2023/06/13 08:17:07;;;;;;;;;;;23.20;36.10;;;;;;5013196;28;19921;-59
2023/06/13 08:19:35;;;;;;;;;;;23.20;36.10;;;;;;5009251;28;20319;-62
2023/06/13 08:22:03;;;;;;;;;;;23.20;36.10;;;;;;5009797;28;19936;-59
2023/06/13 08:24:29;;;;;;;;;;;23.20;36.10;;;;;;5029643;28;20287;-60
2023/06/13 08:26:57;;;;;;;;;;;23.20;36.10;;;;;;5006743;28;19928;-59
2023/06/13 08:29:28;;;;;;;;;;;23.20;36.10;;;;;;5012680;28;19929;-62
2023/06/13 08:31:55;;;;;;;;;;;23.20;36.10;;;;;;5015720;28;19972;-60
2023/06/13 08:34:22;;;;;;;;;;;23.20;36.10;;;;;;5006558;28;20025;-61
2023/06/13 08:36:50;;;;;;;;;;;23.20;36.10;;;;;;5013125;28;20344;-60
2023/06/13 08:39:18;;;;;;;;;;;23.20;36.10;;;;;;5009074;28;19932;-61
2023/06/13 08:41:45;;;;;;;;;;;23.20;36.10;;;;;;4994557;28;20024;-61
2023/06/13 08:44:15;;;;;;;;;;;23.20;36.10;;;;;;5009567;28;19948;-60
2023/06/13 08:46:41;;;;;;;;;;;23.20;36.00;;;;;;5012384;28;20019;-60
2023/06/13 08:49:08;;;;;;;;;;;23.20;36.00;;;;;;5014967;28;19921;-64
2023/06/13 08:51:35;;;;;;;;;;;23.20;36.00;;;;;;5018233;28;19928;-61
2023/06/13 08:54:04;;;;;;;;;;;23.20;36.00;;;;;;5016155;28;19980;-59
2023/06/13 08:56:33;;;;;;;;;;;23.20;36.00;;;;;;5009217;28;19932;-62
2023/06/13 08:59:01;;;;;;;;;;;23.30;36.00;;;;;;5016609;28;19967;-58
2023/06/13 09:01:28;;;;;;;;;;;23.20;35.90;;;;;;5012856;28;19940;-61
2023/06/13 09:03:56;;;;;;;;;;;23.20;35.90;;;;;;5019354;28;19921;-61
2023/06/13 09:06:23;;;;;;;;;;;23.20;35.70;;;;;;5014616;28;20003;-62
2023/06/13 09:08:50;;;;;;;;;;;23.30;35.70;;;;;;5013954;28;19976;-64
2023/06/13 09:11:18;;;;;;;;;;;23.30;35.80;;;;;;5031842;28;19921;-62
2023/06/13 09:13:45;;;;;;;;;;;23.30;35.80;;;;;;5031592;28;20394;-63
2023/06/13 09:16:12;;;;;;;;;;;23.30;35.80;;;;;;5012096;28;20372;-62
2023/06/13 09:18:42;;;;;;;;;;;23.30;35.80;;;;;;5012155;28;20107;-62
2023/06/13 09:21:09;;;;;;;;;;;23.30;35.80;;;;;;5017247;28;19925;-65
2023/06/13 09:23:36;;;;;;;;;;;23.30;35.90;;;;;;5013146;28;19925;-62
2023/06/13 09:26:03;;;;;;;;;;;23.30;35.80;;;;;;5015245;28;19925;-61
2023/06/13 09:28:32;;;;;;;;;;;23.30;35.70;;;;;;5008433;28;19928;-59
2023/06/13 09:30:59;;;;;;;;;;;23.30;35.70;;;;;;5010631;28;19925;-61
2023/06/13 09:33:26;;;;;;;;;;;23.30;35.70;;;;;;5006568;28;19952;-62
2023/06/13 09:35:53;;;;;;;;;;;23.30;35.70;;;;;;5015740;28;19921;-61
2023/06/13 09:38:21;;;;;;;;;;;23.30;35.70;;;;;;5013064;28;19926;-63
2023/06/13 09:40:47;;;;;;;;;;;23.30;35.70;;;;;;5007705;28;19925;-63
2023/06/13 09:43:14;;;;;;;;;;;23.30;35.70;;;;;;5015913;28;19934;-64
2023/06/13 09:45:44;;;;;;;;;;;23.30;35.70;;;;;;5014678;28;19925;-66
2023/06/13 09:48:11;;;;;;;;;;;23.40;35.80;;;;;;5012072;28;19972;-61
2023/06/13 09:50:40;;;;;;;;;;;23.40;35.80;;;;;;5008916;28;19921;-62
2023/06/13 09:53:07;;;;;;;;;;;23.40;35.80;;;;;;5011144;28;19922;-60
2023/06/13 09:55:33;;;;;;;;;;;23.40;35.80;;;;;;5018877;28;19952;-59
2023/06/13 09:58:01;;;;;;;;;;;23.40;35.80;;;;;;5009112;28;19975;-60
2023/06/13 10:00:29;;;;;;;;;;;23.40;35.80;;;;;;5029662;28;19961;-60
2023/06/13 10:02:57;;;;;;;;;;;23.40;35.80;;;;;;5003138;28;19925;-63
2023/06/13 10:05:24;;;;;;;;;;;23.40;35.80;;;;;;5022919;28;19925;-60
2023/06/13 10:07:50;;;;;;;;;;;23.40;35.80;;;;;;5016590;28;19934;-62
2023/06/13 10:10:17;;;;;;;;;;;23.40;35.70;;;;;;5008030;28;20364;-62
2023/06/13 10:12:45;;;;;;;;;;;23.40;35.10;;;;;;5011430;28;19921;-63
2023/06/13 10:15:15;;;;;;;;;;;23.40;35.10;;;;;;5012036;28;19995;-59
2023/06/13 10:17:43;;;;;;;;;;;23.40;34.80;;;;;;5009102;28;19926;-63
2023/06/13 10:20:14;;;;;;;;;;;23.30;34.70;;;;;;5008777;28;19925;-62
2023/06/13 10:22:41;;;;;;;;;;;23.30;34.70;;;;;;5027817;28;19940;-61
2023/06/13 10:25:08;;;;;;;;;;;23.30;34.70;;;;;;5003603;28;19921;-62
2023/06/13 10:27:35;;;;;;;;;;;23.30;34.60;;;;;;5030588;28;19934;-61
2023/06/13 10:30:09;;;;;;;;;;;23.30;34.60;;;;;;5012561;28;19925;-62
2023/06/13 10:32:53;;;;;;;;;;;23.30;34.50;;;;;;5010527;28;20029;-63
2023/06/13 10:35:30;;;;;;;;;;;23.30;34.40;;;;;;4999606;28;19925;-63
2023/06/13 10:38:14;;;;;;;;;;;23.30;34.00;;;;;;5006535;28;19926;-64
2023/06/13 10:40:55;;;;;;;;;;;23.20;33.60;;;;;;5015306;28;19956;-60
2023/06/13 10:43:24;;;;;;;;;;;23.30;33.50;;;;;;5003095;28;20363;-60
2023/06/13 10:45:51;;;;;;;;;;;23.30;33.40;;;;;;5005998;28;19926;-61
2023/06/13 10:48:22;;;;;;;;;;;23.20;33.20;;;;;;5008667;28;19928;-62
2023/06/13 10:50:50;;;;;;;;;;;23.20;33.40;;;;;;5016778;28;19921;-60
2023/06/13 10:53:24;;;;;;;;;;;23.20;33.60;;;;;;5009269;28;19948;-59
2023/06/13 10:55:50;;;;;;;;;;;23.20;33.90;;;;;;5012315;28;19925;-62
2023/06/13 10:58:17;;;;;;;;;;;23.20;34.00;;;;;;5015926;28;19936;-61
2023/06/13 11:00:44;;;;;;;;;;;23.30;34.20;;;;;;5010620;28;19929;-63
2023/06/13 11:03:11;;;;;;;;;;;23.30;34.20;;;;;;5018087;28;19925;-61
2023/06/13 11:05:38;;;;;;;;;;;23.30;34.30;;;;;;5024342;28;19925;-59
2023/06/13 11:08:07;;;;;;;;;;;23.30;34.40;;;;;;5008939;28;19926;-61
2023/06/13 11:10:35;;;;;;;;;;;23.30;34.40;;;;;;5028983;28;19929;-60
2023/06/13 11:13:03;;;;;;;;;;;23.30;34.50;;;;;;5028192;28;19932;-60
2023/06/13 11:15:30;;;;;;;;;;;23.30;34.50;;;;;;4999143;28;19976;-60
2023/06/13 11:18:15;;;;;;;;;;;23.30;34.60;;;;;;5007521;28;19972;-57
2023/06/13 11:20:47;;;;;;;;;;;23.30;34.60;;;;;;5009063;28;20365;-61
2023/06/13 11:23:15;;;;;;;;;;;23.30;34.60;;;;;;5016085;28;19922;-64
2023/06/13 11:25:42;;;;;;;;;;;23.30;34.60;;;;;;5010768;28;20016;-61
2023/06/13 11:28:09;;;;;;;;;;;23.40;34.70;;;;;;5011948;28;19921;-62
2023/06/13 11:30:36;;;;;;;;;;;23.30;34.70;;;;;;5014493;28;19921;-62
2023/06/13 11:33:03;;;;;;;;;;;23.40;34.80;;;;;;5013359;28;19976;-55
2023/06/13 11:35:30;;;;;;;;;;;23.40;34.80;;;;;;5012528;28;19964;-61
2023/06/13 11:37:57;;;;;;;;;;;23.40;34.90;;;;;;5032458;28;19929;-61
2023/06/13 11:40:27;;;;;;;;;;;23.40;34.90;;;;;;5012039;28;19948;-58
2023/06/13 11:42:54;;;;;;;;;;;23.40;34.90;;;;;;5017706;28;20265;-60
2023/06/13 11:45:22;;;;;;;;;;;23.40;35.00;;;;;;5020081;28;19921;-59
2023/06/13 11:47:58;;;;;;;;;;;23.40;35.00;;;;;;5013434;28;19925;-62
2023/06/13 11:50:27;;;;;;;;;;;23.40;35.00;;;;;;4996321;28;19922;-63
2023/06/13 11:53:02;;;;;;;;;;;23.40;35.10;;;;;;5026224;28;19943;-62
2023/06/13 11:55:31;;;;;;;;;;;23.40;35.00;;;;;;4998239;28;19952;-61
2023/06/13 11:57:57;;;;;;;;;;;23.40;35.10;;;;;;5018516;28;19995;-60
2023/06/13 12:00:26;;;;;;;;;;;23.40;35.10;;;;;;4996794;28;19964;-58
2023/06/13 12:02:52;;;;;;;;;;;23.50;35.20;;;;;;4995917;28;19960;-61
2023/06/13 12:05:20;;;;;;;;;;;23.50;35.20;;;;;;5022800;28;19932;-63
2023/06/13 12:07:48;;;;;;;;;;;23.40;35.10;;;;;;5016554;28;19925;-61
2023/06/13 12:10:15;;;;;;;;;;;23.50;35.20;;;;;;5002627;28;19921;-63
2023/06/13 12:12:43;;;;;;;;;;;23.50;35.20;;;;;;5014828;28;19928;-62
2023/06/13 12:15:13;;;;;;;;;;;23.50;35.20;;;;;;5018908;28;19932;-62
2023/06/13 12:17:55;;;;;;;;;;;23.50;35.20;;;;;;4991163;28;19921;-62
2023/06/13 12:20:24;;;;;;;;;;;23.50;35.20;;;;;;5005190;28;19921;-61
2023/06/13 12:22:54;;;;;;;;;;;23.50;35.20;;;;;;5013938;28;20343;-61
2023/06/13 12:25:22;;;;;;;;;;;23.50;35.20;;;;;;5007157;28;19921;-60
2023/06/13 12:27:51;;;;;;;;;;;23.50;35.20;;;;;;5003685;28;19949;-60
2023/06/13 12:30:19;;;;;;;;;;;23.50;35.20;;;;;;5013165;28;19928;-63
2023/06/13 12:32:48;;;;;;;;;;;23.50;35.20;;;;;;5024739;28;19921;-62
2023/06/13 12:35:17;;;;;;;;;;;23.50;35.20;;;;;;5006315;28;19921;-64
2023/06/13 12:37:44;;;;;;;;;;;23.50;35.10;;;;;;5022780;28;20064;-59
2023/06/13 12:40:12;;;;;;;;;;;23.60;35.20;;;;;;5009059;28;19926;-63
2023/06/13 12:42:42;;;;;;;;;;;23.60;35.10;;;;;;5007209;28;19928;-62
2023/06/13 12:45:11;;;;;;;;;;;23.60;35.10;;;;;;5007310;28;20379;-61
2023/06/13 12:47:38;;;;;;;;;;;23.60;35.10;;;;;;5006801;28;19928;-60
2023/06/13 12:50:08;;;;;;;;;;;23.60;35.10;;;;;;5008883;28;19921;-63
2023/06/13 12:52:35;;;;;;;;;;;23.60;35.10;;;;;;5006752;28;19952;-63
2023/06/13 12:55:02;;;;;;;;;;;23.60;35.10;;;;;;5007023;28;19933;-63
2023/06/13 12:57:29;;;;;;;;;;;23.60;35.10;;;;;;5006298;28;19936;-59
2023/06/13 12:59:56;;;;;;;;;;;23.60;35.10;;;;;;5011167;28;19932;-63
2023/06/13 13:02:26;;;;;;;;;;;23.60;35.00;;;;;;5027195;28;19929;-63
2023/06/13 13:04:59;;;;;;;;;;;23.60;35.00;;;;;;5008902;28;20024;-61
2023/06/13 13:07:27;;;;;;;;;;;23.60;35.00;;;;;;5002194;28;19934;-61
2023/06/13 13:09:54;;;;;;;;;;;23.60;34.90;;;;;;5010598;28;20020;-63
2023/06/13 13:12:21;;;;;;;;;;;23.60;34.90;;;;;;5008445;28;19922;-61
2023/06/13 13:14:48;;;;;;;;;;;23.60;35.00;;;;;;5005414;28;20164;-63
2023/06/13 13:17:15;;;;;;;;;;;23.60;35.00;;;;;;5006608;28;19921;-62
2023/06/13 13:19:43;;;;;;;;;;;23.60;34.80;;;;;;5001802;28;19922;-62
2023/06/13 13:22:09;;;;;;;;;;;23.60;34.70;;;;;;5014630;28;19925;-62
2023/06/13 13:24:37;;;;;;;;;;;23.60;34.60;;;;;;5012029;28;20239;-59
2023/06/13 13:27:04;;;;;;;;;;;23.60;34.60;;;;;;5005842;28;19933;-61
2023/06/13 13:29:30;;;;;;;;;;;23.60;34.90;;;;;;5010015;28;20332;-60
2023/06/13 13:31:57;;;;;;;;;;;23.60;34.40;;;;;;5009218;28;19921;-60
2023/06/13 13:34:24;;;;;;;;;;;23.60;34.40;;;;;;5017993;28;20458;-60
2023/06/13 13:36:52;;;;;;;;;;;23.60;35.00;;;;;;5029538;28;20257;-59
2023/06/13 13:39:19;;;;;;;;;;;23.60;34.40;;;;;;5009061;28;19926;-63
2023/06/13 13:41:46;;;;;;;;;;;23.60;34.40;;;;;;5006256;28;19928;-63
2023/06/13 13:44:13;;;;;;;;;;;23.60;34.40;;;;;;5016784;28;19940;-63
2023/06/13 13:46:39;;;;;;;;;;;23.60;34.30;;;;;;5015050;28;19988;-63
2023/06/13 13:49:06;;;;;;;;;;;23.60;34.30;;;;;;5011752;28;19974;-59
2023/06/13 13:51:33;;;;;;;;;;;23.70;34.30;;;;;;5009308;28;19921;-60
2023/06/13 13:54:02;;;;;;;;;;;23.70;34.40;;;;;;5010119;28;20248;-60
2023/06/13 13:56:28;;;;;;;;;;;23.70;34.50;;;;;;5010270;28;20482;-61
2023/06/13 13:58:55;;;;;;;;;;;23.70;34.60;;;;;;5011670;28;20271;-61
2023/06/13 14:01:22;;;;;;;;;;;23.70;34.70;;;;;;5012966;28;19930;-62
2023/06/13 14:03:49;;;;;;;;;;;23.70;34.80;;;;;;5012095;28;19922;-62
2023/06/13 14:06:15;;;;;;;;;;;23.70;34.90;;;;;;5007408;28;19949;-61
2023/06/13 14:08:42;;;;;;;;;;;23.70;35.00;;;;;;5032636;28;19929;-60
2023/06/13 14:11:10;;;;;;;;;;;23.70;35.00;;;;;;5009503;28;19934;-62
2023/06/13 14:13:37;;;;;;;;;;;23.70;35.10;;;;;;5025135;28;19922;-63
2023/06/13 14:16:04;;;;;;;;;;;23.70;35.20;;;;;;5008672;28;19930;-62
2023/06/13 14:18:31;;;;;;;;;;;23.70;35.20;;;;;;5013033;28;19960;-59